Terminal Aerodrome Forecast
Issued by NWS Mt. Holly, NJ

Home | Current Version | Previous Version | Text Only | Print | Product List | Glossary On
Versions: 1 2 3 4 5 6 7 8 9 10 11 12 13
000
FTUS41 KPHI 201100
TAFRDG
TAF
KRDG 201124Z 2012/2112 16003KT P6SM BKN050 BKN250
     FM201600 18007KT P6SM BKN050
     FM202200 VRB03KT P6SM BKN040 OVC100 PROB30 2022/2102 -SHRA=

USA.gov is the U.S. government's official web portal to all federal, state and local government web resources and services.